sensor_id;sensor_type;location;lat;lon;timestamp;P1;durP1;ratioP1;P2;durP2;ratioP2
25649;SDS011;13505;45.196;5.696;2023-11-22T05:35:13;4.40;;;3.22;;
25649;SDS011;13505;45.196;5.696;2023-11-22T05:40:04;6.72;;;3.53;;
25649;SDS011;13505;45.196;5.696;2023-11-22T05:44:55;5.65;;;3.30;;
25649;SDS011;13505;45.196;5.696;2023-11-22T05:49:46;5.63;;;3.43;;
25649;SDS011;13505;45.196;5.696;2023-11-22T05:54:36;7.37;;;3.30;;
25649;SDS011;13505;45.196;5.696;2023-11-22T05:59:27;7.53;;;3.88;;
25649;SDS011;13505;45.196;5.696;2023-11-22T06:04:17;5.90;;;3.50;;
25649;SDS011;13505;45.196;5.696;2023-11-22T06:09:08;4.93;;;3.50;;
25649;SDS011;13505;45.196;5.696;2023-11-22T06:14:00;7.32;;;3.95;;
25649;SDS011;13505;45.196;5.696;2023-11-22T06:18:50;6.00;;;3.80;;
25649;SDS011;13505;45.196;5.696;2023-11-22T06:23:41;6.72;;;3.90;;
25649;SDS011;13505;45.196;5.696;2023-11-22T06:28:32;5.57;;;4.05;;
25649;SDS011;13505;45.196;5.696;2023-11-22T06:33:22;5.63;;;3.20;;
25649;SDS011;13505;45.196;5.696;2023-11-22T06:38:12;6.47;;;4.20;;
25649;SDS011;13505;45.196;5.696;2023-11-22T06:43:03;7.37;;;4.00;;
25649;SDS011;13505;45.196;5.696;2023-11-22T06:47:56;6.57;;;4.05;;
25649;SDS011;13505;45.196;5.696;2023-11-22T06:52:48;5.63;;;3.75;;
25649;SDS011;13505;45.196;5.696;2023-11-22T06:57:40;8.27;;;4.05;;
25649;SDS011;13505;45.196;5.696;2023-11-22T07:02:30;5.97;;;3.70;;
25649;SDS011;13505;45.196;5.696;2023-11-22T07:07:25;6.75;;;4.20;;
25649;SDS011;13505;45.196;5.696;2023-11-22T07:12:15;9.80;;;4.00;;
25649;SDS011;13505;45.196;5.696;2023-11-22T07:17:06;11.55;;;4.53;;
25649;SDS011;13505;45.196;5.696;2023-11-22T07:21:56;6.07;;;3.97;;
25649;SDS011;13505;45.196;5.696;2023-11-22T07:26:47;6.53;;;3.92;;
25649;SDS011;13505;45.196;5.696;2023-11-22T07:31:38;6.90;;;4.07;;
25649;SDS011;13505;45.196;5.696;2023-11-22T07:36:29;8.43;;;3.65;;
25649;SDS011;13505;45.196;5.696;2023-11-22T07:41:20;6.20;;;3.95;;
25649;SDS011;13505;45.196;5.696;2023-11-22T07:46:11;6.13;;;3.72;;
25649;SDS011;13505;45.196;5.696;2023-11-22T07:51:05;6.03;;;3.85;;
25649;SDS011;13505;45.196;5.696;2023-11-22T07:55:55;7.03;;;3.78;;
25649;SDS011;13505;45.196;5.696;2023-11-22T08:00:46;6.80;;;3.35;;
25649;SDS011;13505;45.196;5.696;2023-11-22T08:05:37;6.18;;;3.63;;
25649;SDS011;13505;45.196;5.696;2023-11-22T08:10:30;7.90;;;3.95;;
25649;SDS011;13505;45.196;5.696;2023-11-22T08:15:20;5.40;;;3.50;;
25649;SDS011;13505;45.196;5.696;2023-11-22T08:20:12;7.82;;;4.25;;
25649;SDS011;13505;45.196;5.696;2023-11-22T08:25:04;6.90;;;3.85;;
25649;SDS011;13505;45.196;5.696;2023-11-22T08:29:55;5.25;;;3.38;;
25649;SDS011;13505;45.196;5.696;2023-11-22T08:34:46;9.05;;;3.60;;
25649;SDS011;13505;45.196;5.696;2023-11-22T08:39:36;6.60;;;3.27;;
25649;SDS011;13505;45.196;5.696;2023-11-22T08:44:26;6.53;;;3.75;;
25649;SDS011;13505;45.196;5.696;2023-11-22T08:49:16;5.27;;;3.07;;
25649;SDS011;13505;45.196;5.696;2023-11-22T08:54:07;6.85;;;2.97;;
25649;SDS011;13505;45.196;5.696;2023-11-22T08:58:57;4.83;;;2.83;;
25649;SDS011;13505;45.196;5.696;2023-11-22T09:03:47;4.95;;;2.95;;
25649;SDS011;13505;45.196;5.696;2023-11-22T09:08:40;4.05;;;2.95;;
25649;SDS011;13505;45.196;5.696;2023-11-22T09:13:30;4.40;;;2.75;;
25649;SDS011;13505;45.196;5.696;2023-11-22T09:18:20;9.10;;;3.20;;
25649;SDS011;13505;45.196;5.696;2023-11-22T09:23:12;4.78;;;2.90;;
25649;SDS011;13505;45.196;5.696;2023-11-22T09:28:05;8.73;;;3.20;;
25649;SDS011;13505;45.196;5.696;2023-11-22T09:33:04;6.07;;;2.80;;
25649;SDS011;13505;45.196;5.696;2023-11-22T09:42:48;5.07;;;2.90;;
25649;SDS011;13505;45.196;5.696;2023-11-22T09:47:41;5.88;;;3.10;;
25649;SDS011;13505;45.196;5.696;2023-11-22T09:52:33;10.02;;;3.17;;
25649;SDS011;13505;45.196;5.696;2023-11-22T09:57:25;7.93;;;2.47;;
25649;SDS011;13505;45.196;5.696;2023-11-22T10:02:19;5.35;;;2.70;;
25649;SDS011;13505;45.196;5.696;2023-11-22T10:07:16;4.75;;;2.70;;
25649;SDS011;13505;45.196;5.696;2023-11-22T10:12:07;3.75;;;2.58;;
25649;SDS011;13505;45.196;5.696;2023-11-22T10:16:58;5.38;;;2.45;;
25649;SDS011;13505;45.196;5.696;2023-11-22T10:21:59;3.97;;;2.42;;
25649;SDS011;13505;45.196;5.696;2023-11-22T10:26:53;5.35;;;2.60;;
25649;SDS011;13505;45.196;5.696;2023-11-22T10:31:47;4.75;;;2.30;;
25649;SDS011;13505;45.196;5.696;2023-11-22T10:36:39;6.25;;;2.63;;
25649;SDS011;13505;45.196;5.696;2023-11-22T10:41:30;8.02;;;2.40;;
25649;SDS011;13505;45.196;5.696;2023-11-22T10:46:21;4.38;;;2.20;;
25649;SDS011;13505;45.196;5.696;2023-11-22T10:51:17;3.30;;;2.33;;
25649;SDS011;13505;45.196;5.696;2023-11-22T10:56:14;3.35;;;2.17;;
25649;SDS011;13505;45.196;5.696;2023-11-22T11:01:05;3.63;;;2.17;;
25649;SDS011;13505;45.196;5.696;2023-11-22T11:05:57;3.90;;;1.77;;
25649;SDS011;13505;45.196;5.696;2023-11-22T11:10:48;5.35;;;1.85;;
25649;SDS011;13505;45.196;5.696;2023-11-22T11:15:42;2.63;;;1.50;;
25649;SDS011;13505;45.196;5.696;2023-11-22T11:20:42;2.25;;;1.60;;
25649;SDS011;13505;45.196;5.696;2023-11-22T11:25:56;2.67;;;1.48;;
25649;SDS011;13505;45.196;5.696;2023-11-22T11:30:48;3.95;;;1.70;;
25649;SDS011;13505;45.196;5.696;2023-11-22T11:35:41;3.47;;;1.67;;
25649;SDS011;13505;45.196;5.696;2023-11-22T11:40:35;6.85;;;2.30;;
25649;SDS011;13505;45.196;5.696;2023-11-22T11:45:26;3.00;;;1.75;;
25649;SDS011;13505;45.196;5.696;2023-11-22T11:50:17;2.97;;;1.55;;
25649;SDS011;13505;45.196;5.696;2023-11-22T11:55:10;4.53;;;1.63;;
25649;SDS011;13505;45.196;5.696;2023-11-22T12:00:00;5.10;;;1.47;;
25649;SDS011;13505;45.196;5.696;2023-11-22T12:04:53;2.28;;;1.27;;
25649;SDS011;13505;45.196;5.696;2023-11-22T12:09:44;1.63;;;1.30;;
25649;SDS011;13505;45.196;5.696;2023-11-22T12:14:36;2.17;;;1.40;;
25649;SDS011;13505;45.196;5.696;2023-11-22T12:19:27;2.17;;;1.30;;
25649;SDS011;13505;45.196;5.696;2023-11-22T12:24:21;1.30;;;0.90;;
25649;SDS011;13505;45.196;5.696;2023-11-22T12:29:12;1.88;;;1.05;;
25649;SDS011;13505;45.196;5.696;2023-11-22T12:34:04;2.33;;;1.08;;
25649;SDS011;13505;45.196;5.696;2023-11-22T12:38:57;3.63;;;1.10;;
25649;SDS011;13505;45.196;5.696;2023-11-22T12:44:03;1.50;;;1.00;;
25649;SDS011;13505;45.196;5.696;2023-11-22T12:49:04;0.80;;;0.73;;
25649;SDS011;13505;45.196;5.696;2023-11-22T12:53:56;1.35;;;0.80;;
25649;SDS011;13505;45.196;5.696;2023-11-22T12:58:47;1.55;;;0.90;;
25649;SDS011;13505;45.196;5.696;2023-11-22T13:03:37;2.72;;;1.05;;
25649;SDS011;13505;45.196;5.696;2023-11-22T13:08:28;0.80;;;0.80;;
25649;SDS011;13505;45.196;5.696;2023-11-22T13:13:22;2.38;;;1.02;;
25649;SDS011;13505;45.196;5.696;2023-11-22T13:18:14;2.65;;;1.00;;
25649;SDS011;13505;45.196;5.696;2023-11-22T13:23:06;1.67;;;0.95;;
25649;SDS011;13505;45.196;5.696;2023-11-22T13:27:57;1.52;;;1.20;;
25649;SDS011;13505;45.196;5.696;2023-11-22T13:32:49;7.35;;;1.63;;
25649;SDS011;13505;45.196;5.696;2023-11-22T13:37:40;4.63;;;1.67;;
25649;SDS011;13505;45.196;5.696;2023-11-22T13:42:32;4.60;;;1.35;;
25649;SDS011;13505;45.196;5.696;2023-11-22T13:47:23;1.67;;;1.10;;
25649;SDS011;13505;45.196;5.696;2023-11-22T13:52:13;1.63;;;1.37;;
25649;SDS011;13505;45.196;5.696;2023-11-22T13:57:03;1.95;;;1.40;;
25649;SDS011;13505;45.196;5.696;2023-11-22T14:01:54;1.80;;;1.43;;
25649;SDS011;13505;45.196;5.696;2023-11-22T14:06:44;2.65;;;1.50;;
25649;SDS011;13505;45.196;5.696;2023-11-22T14:11:34;2.78;;;1.65;;
25649;SDS011;13505;45.196;5.696;2023-11-22T14:16:27;5.22;;;1.90;;
25649;SDS011;13505;45.196;5.696;2023-11-22T14:21:17;7.88;;;2.00;;
25649;SDS011;13505;45.196;5.696;2023-11-22T14:26:08;2.92;;;1.77;;
25649;SDS011;13505;45.196;5.696;2023-11-22T14:30:58;2.35;;;1.73;;
25649;SDS011;13505;45.196;5.696;2023-11-22T14:35:49;3.10;;;1.70;;
25649;SDS011;13505;45.196;5.696;2023-11-22T14:40:39;4.07;;;1.70;;
25649;SDS011;13505;45.196;5.696;2023-11-22T14:45:30;3.90;;;1.80;;
25649;SDS011;13505;45.196;5.696;2023-11-22T14:50:22;5.28;;;2.10;;
25649;SDS011;13505;45.196;5.696;2023-11-22T14:55:15;2.85;;;1.77;;
25649;SDS011;13505;45.196;5.696;2023-11-22T15:00:06;4.53;;;1.73;;
25649;SDS011;13505;45.196;5.696;2023-11-22T15:05:03;4.30;;;1.90;;
25649;SDS011;13505;45.196;5.696;2023-11-22T15:09:54;3.03;;;1.70;;
25649;SDS011;13505;45.196;5.696;2023-11-22T15:14:45;2.70;;;1.73;;
25649;SDS011;13505;45.196;5.696;2023-11-22T15:19:35;3.03;;;1.88;;
25649;SDS011;13505;45.196;5.696;2023-11-22T15:24:28;3.72;;;2.08;;
25649;SDS011;13505;45.196;5.696;2023-11-22T15:29:20;2.85;;;1.80;;
25649;SDS011;13505;45.196;5.696;2023-11-22T15:34:10;2.22;;;1.90;;
25649;SDS011;13505;45.196;5.696;2023-11-22T15:39:01;2.28;;;1.80;;
25649;SDS011;13505;45.196;5.696;2023-11-22T15:43:52;5.57;;;2.00;;
25649;SDS011;13505;45.196;5.696;2023-11-22T15:48:43;3.72;;;2.42;;
25649;SDS011;13505;45.196;5.696;2023-11-22T15:53:34;4.60;;;2.20;;
25649;SDS011;13505;45.196;5.696;2023-11-22T15:58:24;3.35;;;2.22;;
25649;SDS011;13505;45.196;5.696;2023-11-22T16:03:14;2.80;;;2.05;;
25649;SDS011;13505;45.196;5.696;2023-11-22T16:08:07;6.80;;;2.60;;
25649;SDS011;13505;45.196;5.696;2023-11-22T16:12:58;3.53;;;2.67;;
25649;SDS011;13505;45.196;5.696;2023-11-22T16:17:48;4.80;;;2.63;;
25649;SDS011;13505;45.196;5.696;2023-11-22T16:22:40;5.03;;;2.60;;
25649;SDS011;13505;45.196;5.696;2023-11-22T16:27:37;5.80;;;2.35;;
25649;SDS011;13505;45.196;5.696;2023-11-22T16:32:27;3.77;;;2.23;;
25649;SDS011;13505;45.196;5.696;2023-11-22T16:37:17;2.50;;;2.03;;
25649;SDS011;13505;45.196;5.696;2023-11-22T16:42:08;4.18;;;2.75;;
25649;SDS011;13505;45.196;5.696;2023-11-22T16:46:59;4.53;;;2.40;;
25649;SDS011;13505;45.196;5.696;2023-11-22T16:51:51;3.95;;;2.60;;
25649;SDS011;13505;45.196;5.696;2023-11-22T16:56:41;4.70;;;2.77;;
25649;SDS011;13505;45.196;5.696;2023-11-22T17:01:31;7.07;;;2.93;;
25649;SDS011;13505;45.196;5.696;2023-11-22T17:06:22;5.53;;;2.42;;
25649;SDS011;13505;45.196;5.696;2023-11-22T17:11:14;5.22;;;2.28;;
25649;SDS011;13505;45.196;5.696;2023-11-22T17:16:05;5.55;;;3.30;;
25649;SDS011;13505;45.196;5.696;2023-11-22T17:20:56;4.55;;;2.70;;
25649;SDS011;13505;45.196;5.696;2023-11-22T17:25:46;6.40;;;3.40;;
25649;SDS011;13505;45.196;5.696;2023-11-22T17:30:37;7.80;;;3.35;;
25649;SDS011;13505;45.196;5.696;2023-11-22T17:35:27;4.43;;;2.90;;
25649;SDS011;13505;45.196;5.696;2023-11-22T17:40:17;4.65;;;3.20;;
25649;SDS011;13505;45.196;5.696;2023-11-22T17:45:08;6.13;;;3.08;;
25649;SDS011;13505;45.196;5.696;2023-11-22T17:49:59;4.18;;;2.95;;
25649;SDS011;13505;45.196;5.696;2023-11-22T17:54:49;5.00;;;2.90;;
25649;SDS011;13505;45.196;5.696;2023-11-22T17:59:40;5.03;;;2.70;;
25649;SDS011;13505;45.196;5.696;2023-11-22T18:04:31;3.90;;;2.90;;
25649;SDS011;13505;45.196;5.696;2023-11-22T18:09:21;8.30;;;4.82;;
25649;SDS011;13505;45.196;5.696;2023-11-22T18:14:12;13.02;;;5.90;;
25649;SDS011;13505;45.196;5.696;2023-11-22T18:19:02;6.00;;;3.70;;
25649;SDS011;13505;45.196;5.696;2023-11-22T18:23:53;6.13;;;3.67;;
25649;SDS011;13505;45.196;5.696;2023-11-22T18:28:45;5.78;;;3.35;;
25649;SDS011;13505;45.196;5.696;2023-11-22T18:33:35;8.20;;;4.05;;
25649;SDS011;13505;45.196;5.696;2023-11-22T18:38:26;6.43;;;3.90;;
25649;SDS011;13505;45.196;5.696;2023-11-22T18:43:16;4.70;;;3.30;;
25649;SDS011;13505;45.196;5.696;2023-11-22T18:48:07;7.00;;;4.23;;
25649;SDS011;13505;45.196;5.696;2023-11-22T18:52:57;6.35;;;3.70;;
25649;SDS011;13505;45.196;5.696;2023-11-22T18:57:47;4.27;;;3.00;;
25649;SDS011;13505;45.196;5.696;2023-11-22T19:02:38;4.25;;;2.95;;
25649;SDS011;13505;45.196;5.696;2023-11-22T19:07:28;5.40;;;3.33;;
25649;SDS011;13505;45.196;5.696;2023-11-22T19:12:18;7.50;;;4.65;;
25649;SDS011;13505;45.196;5.696;2023-11-22T19:17:09;5.22;;;3.25;;
25649;SDS011;13505;45.196;5.696;2023-11-22T19:21:59;5.28;;;3.40;;
25649;SDS011;13505;45.196;5.696;2023-11-22T19:26:50;4.85;;;3.22;;
25649;SDS011;13505;45.196;5.696;2023-11-22T19:31:42;5.22;;;3.35;;
25649;SDS011;13505;45.196;5.696;2023-11-22T19:36:33;5.88;;;3.30;;
25649;SDS011;13505;45.196;5.696;2023-11-22T19:41:24;14.93;;;5.10;;
25649;SDS011;13505;45.196;5.696;2023-11-22T19:46:14;18.55;;;4.00;;
25649;SDS011;13505;45.196;5.696;2023-11-22T19:51:05;17.30;;;3.97;;
25649;SDS011;13505;45.196;5.696;2023-11-22T19:55:55;62.42;;;6.65;;
25649;SDS011;13505;45.196;5.696;2023-11-22T20:00:48;11.40;;;4.10;;
25649;SDS011;13505;45.196;5.696;2023-11-22T20:05:39;31.23;;;4.80;;
25649;SDS011;13505;45.196;5.696;2023-11-22T20:10:29;14.85;;;4.13;;
25649;SDS011;13505;45.196;5.696;2023-11-22T20:15:19;6.87;;;3.67;;
25649;SDS011;13505;45.196;5.696;2023-11-22T20:20:10;13.95;;;4.00;;
25649;SDS011;13505;45.196;5.696;2023-11-22T20:25:01;5.40;;;3.78;;
25649;SDS011;13505;45.196;5.696;2023-11-22T20:29:52;7.45;;;3.22;;
25649;SDS011;13505;45.196;5.696;2023-11-22T20:34:43;32.80;;;5.00;;
25649;SDS011;13505;45.196;5.696;2023-11-22T20:39:33;58.90;;;6.97;;
25649;SDS011;13505;45.196;5.696;2023-11-22T20:44:24;22.35;;;5.15;;
25649;SDS011;13505;45.196;5.696;2023-11-22T20:49:14;13.52;;;4.60;;
25649;SDS011;13505;45.196;5.696;2023-11-22T20:54:04;7.80;;;3.70;;
25649;SDS011;13505;45.196;5.696;2023-11-22T20:58:55;7.97;;;3.90;;
25649;SDS011;13505;45.196;5.696;2023-11-22T21:03:45;7.20;;;3.88;;
25649;SDS011;13505;45.196;5.696;2023-11-22T21:08:35;5.50;;;3.50;;
25649;SDS011;13505;45.196;5.696;2023-11-22T21:13:26;7.75;;;3.97;;
25649;SDS011;13505;45.196;5.696;2023-11-22T21:18:16;4.60;;;3.60;;
25649;SDS011;13505;45.196;5.696;2023-11-22T21:23:06;8.70;;;4.60;;
25649;SDS011;13505;45.196;5.696;2023-11-22T21:27:57;8.70;;;4.63;;
25649;SDS011;13505;45.196;5.696;2023-11-22T21:32:48;7.63;;;3.83;;
25649;SDS011;13505;45.196;5.696;2023-11-22T21:37:38;6.97;;;4.18;;
25649;SDS011;13505;45.196;5.696;2023-11-22T21:42:28;5.63;;;3.58;;
25649;SDS011;13505;45.196;5.696;2023-11-22T21:47:19;5.90;;;3.78;;
25649;SDS011;13505;45.196;5.696;2023-11-22T21:52:09;6.22;;;3.58;;
25649;SDS011;13505;45.196;5.696;2023-11-22T21:57:00;4.47;;;3.60;;
25649;SDS011;13505;45.196;5.696;2023-11-22T22:01:50;6.38;;;4.00;;
25649;SDS011;13505;45.196;5.696;2023-11-22T22:06:41;6.00;;;3.50;;
25649;SDS011;13505;45.196;5.696;2023-11-22T22:11:33;8.70;;;4.10;;
25649;SDS011;13505;45.196;5.696;2023-11-22T22:16:23;7.60;;;4.22;;
25649;SDS011;13505;45.196;5.696;2023-11-22T22:21:14;5.50;;;3.97;;
25649;SDS011;13505;45.196;5.696;2023-11-22T22:26:04;6.82;;;4.03;;
25649;SDS011;13505;45.196;5.696;2023-11-22T22:30:55;6.28;;;3.83;;
25649;SDS011;13505;45.196;5.696;2023-11-22T22:35:46;8.48;;;4.20;;
25649;SDS011;13505;45.196;5.696;2023-11-22T22:40:37;7.03;;;3.65;;
25649;SDS011;13505;45.196;5.696;2023-11-22T22:45:27;6.43;;;3.77;;
25649;SDS011;13505;45.196;5.696;2023-11-22T22:50:17;6.37;;;3.53;;
25649;SDS011;13505;45.196;5.696;2023-11-22T22:55:08;5.13;;;3.92;;
25649;SDS011;13505;45.196;5.696;2023-11-22T22:59:58;5.75;;;3.65;;
